createdAt,value
2022-09-19T00:00:06.630Z,1003.66
2022-09-19T00:01:06.590Z,1003.61
2022-09-19T00:02:06.728Z,1003.62
2022-09-19T00:03:06.650Z,1003.66
2022-09-19T00:04:06.573Z,1003.67
2022-09-19T00:05:06.987Z,1003.66
2022-09-19T00:06:06.530Z,1003.69
2022-09-19T00:07:06.550Z,1003.76
2022-09-19T00:08:06.552Z,1003.74
2022-09-19T00:09:06.519Z,1003.73
2022-09-19T00:10:06.510Z,1003.77
2022-09-19T00:11:06.490Z,1003.83
2022-09-19T00:12:06.484Z,1003.78
2022-09-19T00:13:06.473Z,1003.80
2022-09-19T00:14:06.424Z,1003.82
2022-09-19T00:15:06.488Z,1003.82
2022-09-19T00:16:06.432Z,1003.80
2022-09-19T00:17:06.396Z,1003.82
2022-09-19T00:18:06.384Z,1003.89
2022-09-19T00:19:06.463Z,1003.91
2022-09-19T00:20:07.261Z,1003.92
2022-09-19T00:21:06.355Z,1003.95
2022-09-19T00:22:06.324Z,1003.92
2022-09-19T00:23:06.342Z,1003.91
2022-09-19T00:24:06.299Z,1003.99
2022-09-19T00:25:06.306Z,1004.00
2022-09-19T00:26:06.371Z,1004.01
2022-09-19T00:27:06.295Z,1004.00
2022-09-19T00:28:06.243Z,1004.00
2022-09-19T00:29:06.264Z,1004.05
2022-09-19T00:30:06.280Z,1004.02
2022-09-19T00:31:06.373Z,1004.13
2022-09-19T00:32:06.277Z,1004.12
2022-09-19T00:33:06.617Z,1004.11
2022-09-19T00:34:06.267Z,1004.12
2022-09-19T00:35:06.207Z,1004.10
2022-09-19T00:36:06.153Z,1004.13
2022-09-19T00:37:06.199Z,1004.16
2022-09-19T00:38:06.167Z,1004.12
2022-09-19T00:39:06.172Z,1004.15
2022-09-19T00:40:06.163Z,1004.17
2022-09-19T00:41:06.277Z,1004.11
2022-09-19T00:42:06.065Z,1004.15
2022-09-19T00:43:06.091Z,1004.15
2022-09-19T00:44:06.079Z,1004.15
2022-09-19T00:45:06.027Z,1004.13
2022-09-19T00:46:06.247Z,1004.20
2022-09-19T00:47:06.006Z,1004.25
2022-09-19T00:48:06.042Z,1004.21
2022-09-19T00:49:06.066Z,1004.25
2022-09-19T00:50:05.968Z,1004.28
2022-09-19T00:51:05.972Z,1004.25
2022-09-19T00:52:05.956Z,1004.30
2022-09-19T00:53:05.957Z,1004.29
2022-09-19T00:54:05.908Z,1004.34
2022-09-19T00:55:05.888Z,1004.37
2022-09-19T00:56:05.976Z,1004.32
2022-09-19T00:57:05.961Z,1004.34
2022-09-19T00:58:05.894Z,1004.33
2022-09-19T00:59:05.870Z,1004.37
2022-09-19T01:00:05.867Z,1004.46
2022-09-19T01:01:05.879Z,1004.34
2022-09-19T01:02:05.834Z,1004.33
2022-09-19T01:03:05.906Z,1004.39
2022-09-19T01:04:05.837Z,1004.40
2022-09-19T01:05:05.763Z,1004.43
2022-09-19T01:06:05.839Z,1004.44
2022-09-19T01:07:05.760Z,1004.44
2022-09-19T01:08:05.734Z,1004.52
2022-09-19T01:09:05.721Z,1004.53
2022-09-19T01:10:05.700Z,1004.47
2022-09-19T01:11:06.750Z,1004.48
2022-09-19T01:12:05.772Z,1004.56
2022-09-19T01:13:05.698Z,1004.52
2022-09-19T01:14:06.045Z,1004.49
2022-09-19T01:15:05.661Z,1004.59
2022-09-19T01:16:05.745Z,1004.60
2022-09-19T01:17:05.640Z,1004.60
2022-09-19T01:18:05.612Z,1004.63
2022-09-19T01:19:05.668Z,1004.59
2022-09-19T01:20:05.635Z,1004.68
2022-09-19T01:21:05.562Z,1004.70
2022-09-19T01:22:05.580Z,1004.65
2022-09-19T01:23:05.608Z,1004.72
2022-09-19T01:24:05.554Z,1004.74
2022-09-19T01:25:05.925Z,1004.73
2022-09-19T01:26:05.524Z,1004.73
2022-09-19T01:27:05.533Z,1004.74
2022-09-19T01:28:05.560Z,1004.81
2022-09-19T01:29:05.455Z,1004.79
2022-09-19T01:30:05.461Z,1004.82
2022-09-19T01:31:05.448Z,1004.80
2022-09-19T01:32:06.070Z,1004.85
2022-09-19T01:33:05.892Z,1004.86
2022-09-19T01:34:05.471Z,1004.88
2022-09-19T01:35:05.377Z,1004.90
2022-09-19T01:36:05.357Z,1004.91
2022-09-19T01:37:05.469Z,1004.93
2022-09-19T01:38:05.372Z,1004.93
2022-09-19T01:39:05.371Z,1004.94
2022-09-19T01:40:05.629Z,1004.97
2022-09-19T01:41:05.322Z,1004.95
2022-09-19T01:42:05.305Z,1004.94
2022-09-19T01:43:05.339Z,1004.94
2022-09-19T01:44:05.312Z,1004.95
2022-09-19T01:45:05.638Z,1004.95
2022-09-19T01:46:05.315Z,1004.97
2022-09-19T01:47:05.258Z,1004.98
2022-09-19T01:48:05.240Z,1004.97
2022-09-19T01:49:05.268Z,1005.05
2022-09-19T01:50:06.083Z,1005.00
2022-09-19T01:51:05.183Z,1005.04
2022-09-19T01:52:05.165Z,1005.05
2022-09-19T01:53:05.164Z,1005.04
2022-09-19T01:54:05.180Z,1005.00
2022-09-19T01:55:05.121Z,1005.05
2022-09-19T01:56:05.130Z,1005.04
2022-09-19T01:57:05.130Z,1005.05
2022-09-19T01:58:05.084Z,1005.01
2022-09-19T01:59:05.166Z,1005.07
2022-09-19T02:00:05.045Z,1005.10
2022-09-19T02:01:05.108Z,1005.10
2022-09-19T02:02:05.131Z,1005.19
2022-09-19T02:03:05.066Z,1005.10
2022-09-19T02:04:05.241Z,1005.18
2022-09-19T02:05:04.984Z,1005.18
2022-09-19T02:06:04.976Z,1005.19
2022-09-19T02:07:04.997Z,1005.20
2022-09-19T02:08:04.965Z,1005.17
2022-09-19T02:09:05.077Z,1005.19
2022-09-19T02:10:05.047Z,1005.20
2022-09-19T02:11:04.953Z,1005.24
2022-09-19T02:12:04.915Z,1005.30
2022-09-19T02:13:04.904Z,1005.27
2022-09-19T02:14:04.950Z,1005.26
2022-09-19T02:15:05.894Z,1005.28
2022-09-19T02:16:05.389Z,1005.26
2022-09-19T02:17:04.888Z,1005.30
2022-09-19T02:18:04.886Z,1005.32
2022-09-19T02:19:04.864Z,1005.32
2022-09-19T02:20:04.807Z,1005.35
2022-09-19T02:21:04.797Z,1005.31
2022-09-19T02:22:04.808Z,1005.38
2022-09-19T02:23:05.990Z,1005.37
2022-09-19T02:24:04.889Z,1005.31
2022-09-19T02:25:04.778Z,1005.39
2022-09-19T02:26:04.707Z,1005.42
2022-09-19T02:27:04.748Z,1005.41
2022-09-19T02:28:05.496Z,1005.35
2022-09-19T02:29:04.759Z,1005.36
2022-09-19T02:30:04.688Z,1005.42
2022-09-19T02:31:04.670Z,1005.42
2022-09-19T02:32:04.657Z,1005.39
2022-09-19T02:33:04.682Z,1005.36
2022-09-19T02:34:04.697Z,1005.34
2022-09-19T02:35:04.783Z,1005.39
2022-09-19T02:36:05.018Z,1005.41
2022-09-19T02:37:04.558Z,1005.42
2022-09-19T02:38:04.580Z,1005.45
2022-09-19T02:39:04.582Z,1005.51
2022-09-19T02:40:04.643Z,1005.46
2022-09-19T02:41:04.614Z,1005.50
2022-09-19T02:42:04.560Z,1005.52
2022-09-19T02:43:04.530Z,1005.54
2022-09-19T02:44:04.512Z,1005.51
2022-09-19T02:45:04.476Z,1005.54
2022-09-19T02:46:04.526Z,1005.53
2022-09-19T02:47:05.180Z,1005.54
2022-09-19T02:48:05.630Z,1005.54
2022-09-19T02:49:04.505Z,1005.56
2022-09-19T02:50:04.499Z,1005.58
2022-09-19T02:51:04.422Z,1005.61
2022-09-19T02:52:05.110Z,1005.59
2022-09-19T02:53:04.986Z,1005.63
2022-09-19T02:54:05.234Z,1005.64
2022-09-19T02:55:04.413Z,1005.68
2022-09-19T02:56:04.324Z,1005.69
2022-09-19T02:57:04.456Z,1005.69
2022-09-19T02:58:04.321Z,1005.74
2022-09-19T02:59:04.373Z,1005.79
2022-09-19T03:00:04.327Z,1005.79
2022-09-19T03:01:04.478Z,1005.80
2022-09-19T03:02:04.597Z,1005.80
2022-09-19T03:03:04.506Z,1005.79
2022-09-19T03:04:04.388Z,1005.80
2022-09-19T03:05:04.217Z,1005.79
2022-09-19T03:06:04.728Z,1005.83
2022-09-19T03:07:04.197Z,1005.81
2022-09-19T03:08:04.193Z,1005.84
2022-09-19T03:09:04.177Z,1005.80
2022-09-19T03:10:04.163Z,1005.83
2022-09-19T03:11:04.166Z,1005.80
2022-09-19T03:12:04.174Z,1005.82
2022-09-19T03:13:04.099Z,1005.82
2022-09-19T03:14:04.146Z,1005.85
2022-09-19T03:15:04.236Z,1005.84
2022-09-19T03:16:04.248Z,1005.80
2022-09-19T03:17:04.085Z,1005.84
2022-09-19T03:18:04.057Z,1005.84
2022-09-19T03:19:04.117Z,1005.88
2022-09-19T03:20:04.126Z,1005.85
2022-09-19T03:21:04.230Z,1005.87
2022-09-19T03:22:04.003Z,1005.85
2022-09-19T03:23:03.971Z,1005.89
2022-09-19T03:24:05.238Z,1005.92
2022-09-19T03:25:03.959Z,1005.93
2022-09-19T03:26:03.977Z,1005.97
2022-09-19T03:27:03.909Z,1005.94
2022-09-19T03:28:03.928Z,1005.96
2022-09-19T03:29:03.885Z,1005.96
2022-09-19T03:30:03.924Z,1005.95
2022-09-19T03:31:03.937Z,1005.98
2022-09-19T03:32:04.292Z,1006.03
2022-09-19T03:33:03.913Z,1006.02
2022-09-19T03:34:03.847Z,1006.00
2022-09-19T03:35:03.804Z,1006.03
2022-09-19T03:36:03.805Z,1006.04
2022-09-19T03:37:04.916Z,1006.12
2022-09-19T03:38:03.851Z,1006.06
2022-09-19T03:39:03.804Z,1006.08
2022-09-19T03:40:04.557Z,1006.11
2022-09-19T03:41:03.906Z,1006.15
2022-09-19T03:42:03.771Z,1006.14
2022-09-19T03:43:03.708Z,1006.11
2022-09-19T03:44:03.712Z,1006.21
2022-09-19T03:45:03.684Z,1006.20
2022-09-19T03:46:03.712Z,1006.24
2022-09-19T03:47:03.743Z,1006.22
2022-09-19T03:48:03.881Z,1006.24
2022-09-19T03:49:05.004Z,1006.25
2022-09-19T03:50:03.623Z,1006.27
2022-09-19T03:51:03.664Z,1006.32
2022-09-19T03:52:03.725Z,1006.31
2022-09-19T03:53:03.569Z,1006.30
2022-09-19T03:54:03.560Z,1006.40
2022-09-19T03:55:03.627Z,1006.32
2022-09-19T03:56:03.596Z,1006.29
2022-09-19T03:57:04.635Z,1006.32
2022-09-19T03:58:04.541Z,1006.36
2022-09-19T03:59:03.534Z,1006.33
2022-09-19T04:00:03.612Z,1006.34
2022-09-19T04:01:03.590Z,1006.36
2022-09-19T04:02:03.633Z,1006.35
2022-09-19T04:03:03.501Z,1006.36
2022-09-19T04:04:03.509Z,1006.37
2022-09-19T04:05:03.415Z,1006.32
2022-09-19T04:06:03.395Z,1006.37
2022-09-19T04:07:03.409Z,1006.34
2022-09-19T04:08:03.426Z,1006.40
2022-09-19T04:09:03.485Z,1006.34
2022-09-19T04:10:03.364Z,1006.35
2022-09-19T04:11:03.506Z,1006.38
2022-09-19T04:12:06.081Z,1006.35
2022-09-19T04:13:03.358Z,1006.36
2022-09-19T04:14:04.438Z,1006.41
2022-09-19T04:15:03.809Z,1006.39
2022-09-19T04:16:03.295Z,1006.36
2022-09-19T04:17:22.816Z,1006.43
2022-09-19T04:18:04.327Z,1006.42
2022-09-19T04:19:03.330Z,1006.43
2022-09-19T04:20:03.249Z,1006.48
2022-09-19T04:21:03.209Z,1006.50
2022-09-19T04:22:03.195Z,1006.44
2022-09-19T04:23:03.308Z,1006.45
2022-09-19T04:24:04.137Z,1006.51
2022-09-19T04:25:03.461Z,1006.52
2022-09-19T04:26:03.608Z,1006.47
2022-09-19T04:27:04.317Z,1006.45
2022-09-19T04:28:03.499Z,1006.50
2022-09-19T04:29:03.108Z,1006.47
2022-09-19T04:30:03.084Z,1006.49
2022-09-19T04:31:03.412Z,1006.47
2022-09-19T04:32:03.260Z,1006.50
2022-09-19T04:33:03.571Z,1006.50
2022-09-19T04:34:03.171Z,1006.52
2022-09-19T04:35:03.038Z,1006.52
2022-09-19T04:36:03.113Z,1006.50
2022-09-19T04:37:03.021Z,1006.50
2022-09-19T04:38:02.996Z,1006.50
2022-09-19T04:39:03.021Z,1006.48
2022-09-19T04:40:03.111Z,1006.51
2022-09-19T04:41:03.005Z,1006.58
2022-09-19T04:42:02.982Z,1006.56
2022-09-19T04:43:03.041Z,1006.60
2022-09-19T04:44:03.491Z,1006.58
2022-09-19T04:45:04.124Z,1006.57
2022-09-19T04:46:03.177Z,1006.62
2022-09-19T04:47:02.905Z,1006.60
2022-09-19T04:48:03.014Z,1006.64
2022-09-19T04:49:03.109Z,1006.64
2022-09-19T04:50:05.017Z,1006.65
2022-09-19T04:51:03.365Z,1006.66
2022-09-19T04:52:02.955Z,1006.63
2022-09-19T04:53:02.853Z,1006.66
2022-09-19T04:54:02.784Z,1006.67
2022-09-19T04:55:02.785Z,1006.71
2022-09-19T04:56:02.757Z,1006.69
2022-09-19T04:57:02.786Z,1006.63
2022-09-19T04:58:02.725Z,1006.71
2022-09-19T04:59:02.758Z,1006.71
2022-09-19T05:00:02.724Z,1006.73
2022-09-19T05:01:02.692Z,1006.69
2022-09-19T05:02:02.834Z,1006.81
2022-09-19T05:03:02.654Z,1006.81
2022-09-19T05:04:02.645Z,1006.83
2022-09-19T05:05:02.765Z,1006.82
2022-09-19T05:06:02.607Z,1006.80
2022-09-19T05:07:03.544Z,1006.86
2022-09-19T05:08:02.755Z,1006.92
2022-09-19T05:09:02.628Z,1006.89
2022-09-19T05:10:02.556Z,1006.95
2022-09-19T05:11:02.580Z,1006.92
2022-09-19T05:12:02.588Z,1006.90
2022-09-19T05:13:02.518Z,1006.93
2022-09-19T05:14:02.657Z,1006.93
2022-09-19T05:15:02.527Z,1006.95
2022-09-19T05:16:02.721Z,1006.97
2022-09-19T05:17:02.476Z,1006.97
2022-09-19T05:18:02.457Z,1007.00
2022-09-19T05:19:02.489Z,1007.05
2022-09-19T05:20:02.468Z,1007.06
2022-09-19T05:21:02.443Z,1007.04
2022-09-19T05:22:02.472Z,1007.03
2022-09-19T05:23:02.648Z,1007.04
2022-09-19T05:24:02.421Z,1007.08
2022-09-19T05:25:02.410Z,1007.12
2022-09-19T05:26:02.383Z,1007.09
2022-09-19T05:27:02.368Z,1007.11
2022-09-19T05:28:03.594Z,1007.10
2022-09-19T05:29:02.369Z,1007.07
2022-09-19T05:30:02.392Z,1007.10
2022-09-19T05:31:03.294Z,1007.07
2022-09-19T05:32:03.216Z,1007.08
2022-09-19T05:33:04.336Z,1007.10
2022-09-19T05:34:03.339Z,1007.10
2022-09-19T05:35:02.354Z,1007.13
2022-09-19T05:36:03.344Z,1007.16
2022-09-19T05:37:02.764Z,1007.16
2022-09-19T05:38:02.568Z,1007.18
2022-09-19T05:39:03.032Z,1007.20
2022-09-19T05:40:03.502Z,1007.18
2022-09-19T05:41:02.213Z,1007.22
2022-09-19T05:42:02.164Z,1007.21
2022-09-19T05:43:02.376Z,1007.23
2022-09-19T05:44:02.434Z,1007.19
2022-09-19T05:45:02.672Z,1007.27
2022-09-19T05:46:03.545Z,1007.24
2022-09-19T05:47:02.245Z,1007.25
2022-09-19T05:48:03.198Z,1007.24
2022-09-19T05:49:03.115Z,1007.26
2022-09-19T05:50:02.466Z,1007.33
2022-09-19T05:51:02.451Z,1007.33
2022-09-19T05:52:02.102Z,1007.36
2022-09-19T05:53:02.021Z,1007.33
2022-09-19T05:54:02.335Z,1007.39
2022-09-19T05:55:02.073Z,1007.40
2022-09-19T05:56:02.044Z,1007.42
2022-09-19T05:57:01.985Z,1007.48
2022-09-19T05:58:01.969Z,1007.46
2022-09-19T05:59:03.218Z,1007.48
2022-09-19T06:00:03.066Z,1007.45
2022-09-19T06:01:02.088Z,1007.48
2022-09-19T06:02:01.993Z,1007.51
2022-09-19T06:03:02.777Z,1007.55
2022-09-19T06:04:01.893Z,1007.49
2022-09-19T06:05:01.976Z,1007.51
2022-09-19T06:06:02.179Z,1007.57
2022-09-19T06:07:02.083Z,1007.58
2022-09-19T06:08:02.076Z,1007.53
2022-09-19T06:09:01.829Z,1007.61
2022-09-19T06:10:01.917Z,1007.62
2022-09-19T06:11:02.030Z,1007.62
2022-09-19T06:12:02.882Z,1007.61
2022-09-19T06:13:01.784Z,1007.60
2022-09-19T06:14:01.733Z,1007.70
2022-09-19T06:15:01.727Z,1007.63
2022-09-19T06:16:01.800Z,1007.66
2022-09-19T06:17:01.717Z,1007.63
2022-09-19T06:18:01.712Z,1007.71
2022-09-19T06:19:01.691Z,1007.70
2022-09-19T06:20:01.712Z,1007.72
2022-09-19T06:21:01.644Z,1007.74
2022-09-19T06:22:01.663Z,1007.74
2022-09-19T06:23:01.776Z,1007.80
2022-09-19T06:24:01.674Z,1007.82
2022-09-19T06:25:01.588Z,1007.79
2022-09-19T06:26:01.645Z,1007.79
2022-09-19T06:27:01.592Z,1007.89
2022-09-19T06:28:01.573Z,1007.87
2022-09-19T06:29:03.053Z,1007.87
2022-09-19T06:30:02.751Z,1007.90
2022-09-19T06:31:02.656Z,1007.88
2022-09-19T06:32:02.712Z,1007.89
2022-09-19T06:33:01.701Z,1007.86
2022-09-19T06:34:01.497Z,1007.95
2022-09-19T06:35:01.563Z,1007.88
2022-09-19T06:36:01.743Z,1007.97
2022-09-19T06:37:01.714Z,1007.93
2022-09-19T06:38:02.518Z,1008.00
2022-09-19T06:39:01.740Z,1007.94
2022-09-19T06:40:01.695Z,1007.95
2022-09-19T06:41:01.478Z,1007.93
2022-09-19T06:42:02.614Z,1007.97
2022-09-19T06:43:01.445Z,1007.94
2022-09-19T06:44:02.025Z,1008.02
2022-09-19T06:45:01.366Z,1008.01
2022-09-19T06:46:01.659Z,1008.02
2022-09-19T06:47:02.134Z,1008.09
2022-09-19T06:48:02.193Z,1008.03
2022-09-19T06:49:01.382Z,1008.08
2022-09-19T06:50:02.398Z,1008.03
2022-09-19T06:51:01.314Z,1008.07
2022-09-19T06:52:01.351Z,1008.11
2022-09-19T06:53:02.713Z,1008.07
2022-09-19T06:54:01.240Z,1008.12
2022-09-19T06:55:02.166Z,1008.11
2022-09-19T06:56:01.258Z,1008.12
2022-09-19T06:57:01.336Z,1008.10
2022-09-19T06:58:01.336Z,1008.15
2022-09-19T06:59:01.199Z,1008.14
2022-09-19T07:00:01.128Z,1008.18
2022-09-19T07:01:01.305Z,1008.18
2022-09-19T07:02:01.295Z,1008.20
2022-09-19T07:03:01.660Z,1008.23
2022-09-19T07:04:01.419Z,1008.21
2022-09-19T07:05:01.101Z,1008.18
2022-09-19T07:06:01.136Z,1008.19
2022-09-19T07:07:01.371Z,1008.25
2022-09-19T07:08:01.291Z,1008.26
2022-09-19T07:09:01.083Z,1008.22
2022-09-19T07:10:01.036Z,1008.25
2022-09-19T07:11:00.993Z,1008.25
2022-09-19T07:12:01.089Z,1008.25
2022-09-19T07:13:01.401Z,1008.32
2022-09-19T07:14:00.967Z,1008.31
2022-09-19T07:15:02.008Z,1008.34
2022-09-19T07:16:01.882Z,1008.29
2022-09-19T07:17:01.142Z,1008.28
2022-09-19T07:18:01.247Z,1008.32
2022-09-19T07:19:01.538Z,1008.36
2022-09-19T07:20:00.874Z,1008.32
2022-09-19T07:21:00.876Z,1008.31
2022-09-19T07:22:00.877Z,1008.30
2022-09-19T07:23:00.892Z,1008.38
2022-09-19T07:24:01.463Z,1008.39
2022-09-19T07:25:00.812Z,1008.38
2022-09-19T07:26:00.871Z,1008.36
2022-09-19T07:27:00.825Z,1008.39
2022-09-19T07:28:04.093Z,1008.37
2022-09-19T07:29:00.879Z,1008.38
2022-09-19T07:30:00.755Z,1008.41
2022-09-19T07:31:00.849Z,1008.44
2022-09-19T07:32:00.838Z,1008.46
2022-09-19T07:33:00.738Z,1008.42
2022-09-19T07:34:04.804Z,1008.53
2022-09-19T07:35:00.676Z,1008.52
2022-09-19T07:36:00.742Z,1008.49
2022-09-19T07:37:00.991Z,1008.49
2022-09-19T07:38:00.756Z,1008.53
2022-09-19T07:39:00.688Z,1008.53
2022-09-19T07:40:07.063Z,1008.50
2022-09-19T07:41:02.656Z,1008.52
2022-09-19T07:42:00.663Z,1008.54
2022-09-19T07:43:00.562Z,1008.59
2022-09-19T07:44:00.603Z,1008.60
2022-09-19T07:45:03.404Z,1008.55
2022-09-19T07:46:00.582Z,1008.61
2022-09-19T07:47:00.596Z,1008.64
2022-09-19T07:48:00.542Z,1008.62
2022-09-19T07:49:00.631Z,1008.66
2022-09-19T07:50:00.557Z,1008.66
2022-09-19T07:51:00.499Z,1008.66
2022-09-19T07:52:00.528Z,1008.67
2022-09-19T07:53:00.474Z,1008.66
2022-09-19T07:54:00.449Z,1008.64
2022-09-19T07:55:00.546Z,1008.71
2022-09-19T07:56:01.661Z,1008.72
2022-09-19T07:57:00.399Z,1008.74
2022-09-19T07:58:01.910Z,1008.72
2022-09-19T07:59:00.400Z,1008.70
2022-09-19T08:00:00.856Z,1008.79
2022-09-19T08:01:00.386Z,1008.82
2022-09-19T08:02:00.362Z,1008.78
2022-09-19T08:03:00.713Z,1008.79
2022-09-19T08:04:00.375Z,1008.81
2022-09-19T08:05:01.294Z,1008.83
2022-09-19T08:06:00.389Z,1008.87
2022-09-19T08:07:00.293Z,1008.81
2022-09-19T08:08:00.225Z,1008.90
2022-09-19T08:09:00.733Z,1008.86
2022-09-19T08:10:00.742Z,1008.87
2022-09-19T08:11:00.204Z,1008.90
2022-09-19T08:12:00.187Z,1008.85
2022-09-19T08:13:00.738Z,1008.87
2022-09-19T08:14:00.809Z,1008.84
2022-09-19T08:15:00.179Z,1008.87
2022-09-19T08:16:03.281Z,1008.81
2022-09-19T08:17:00.161Z,1008.81
2022-09-19T08:18:00.238Z,1008.86
2022-09-19T08:19:00.104Z,1008.92
2022-09-19T08:20:00.308Z,1008.91
2022-09-19T08:21:00.181Z,1008.94
2022-09-19T08:22:00.133Z,1008.90
2022-09-19T08:23:00.321Z,1008.87
2022-09-19T08:24:00.050Z,1008.91
2022-09-19T08:25:00.119Z,1008.87
2022-09-19T08:26:00.494Z,1008.92
2022-09-19T08:27:00.036Z,1008.87
2022-09-19T08:28:00.029Z,1008.90
2022-09-19T08:29:00.011Z,1008.92
2022-09-19T08:30:00.020Z,1008.92
2022-09-19T08:31:00.011Z,1008.89
2022-09-19T08:32:00.806Z,1008.89
2022-09-19T08:33:00.553Z,1008.90
2022-09-19T08:34:00.012Z,1008.92
2022-09-19T08:34:59.900Z,1008.94
2022-09-19T08:36:00.889Z,1008.96
2022-09-19T08:37:00.010Z,1008.94
2022-09-19T08:37:59.856Z,1008.95
2022-09-19T08:39:00.598Z,1008.94
2022-09-19T08:40:00.069Z,1008.98
2022-09-19T08:41:00.920Z,1008.98
2022-09-19T08:42:00.821Z,1008.94
2022-09-19T08:42:59.812Z,1008.97
2022-09-19T08:44:00.630Z,1009.00
2022-09-19T08:44:59.745Z,1009.01
2022-09-19T08:46:00.434Z,1009.02
2022-09-19T08:46:59.760Z,1009.00
2022-09-19T08:47:59.982Z,1008.98
2022-09-19T08:48:59.710Z,1009.11
2022-09-19T08:49:59.762Z,1009.01
2022-09-19T08:50:59.724Z,1009.05
2022-09-19T08:52:00.483Z,1009.06
2022-09-19T08:52:59.692Z,1009.16
2022-09-19T08:53:59.626Z,1009.12
2022-09-19T08:54:59.764Z,1009.00
2022-09-19T08:55:59.663Z,1009.03
2022-09-19T08:56:59.685Z,1009.07
2022-09-19T08:57:59.754Z,1008.98
2022-09-19T08:58:59.642Z,1009.09
2022-09-19T08:59:59.751Z,1009.17
2022-09-19T09:00:59.594Z,1009.09
2022-09-19T09:02:22.277Z,1009.12
2022-09-19T09:03:06.876Z,1009.13
2022-09-19T09:04:00.540Z,1009.11
2022-09-19T09:04:59.586Z,1009.13
2022-09-19T09:05:59.997Z,1009.21
2022-09-19T09:06:59.506Z,1009.15
2022-09-19T09:07:59.511Z,1009.21
2022-09-19T09:08:59.452Z,1009.17
2022-09-19T09:09:59.471Z,1009.19
2022-09-19T09:10:59.574Z,1009.20
2022-09-19T09:11:59.437Z,1009.19
2022-09-19T09:13:00.409Z,1009.18
2022-09-19T09:14:00.998Z,1009.15
2022-09-19T09:15:18.764Z,1009.22
2022-09-19T09:16:00.758Z,1009.23
2022-09-19T09:16:59.313Z,1009.22
2022-09-19T09:17:59.337Z,1009.24
2022-09-19T09:19:01.428Z,1009.23
2022-09-19T09:19:59.335Z,1009.23
2022-09-19T09:21:00.181Z,1009.20
2022-09-19T09:21:59.252Z,1009.22
2022-09-19T09:22:59.307Z,1009.30
2022-09-19T09:24:08.787Z,1009.32
2022-09-19T09:25:00.231Z,1009.29
2022-09-19T09:25:59.266Z,1009.25
2022-09-19T09:27:00.097Z,1009.23
2022-09-19T09:27:59.183Z,1009.31
2022-09-19T09:28:59.409Z,1009.28
2022-09-19T09:29:59.169Z,1009.22
2022-09-19T09:30:59.286Z,1009.22
2022-09-19T09:31:59.296Z,1009.30
2022-09-19T09:32:59.151Z,1009.26
2022-09-19T09:33:59.166Z,1009.21
2022-09-19T09:34:59.084Z,1009.24
2022-09-19T09:35:59.088Z,1009.24
2022-09-19T09:36:59.138Z,1009.29
2022-09-19T09:37:59.040Z,1009.29
2022-09-19T09:38:59.030Z,1009.28
2022-09-19T09:39:59.159Z,1009.32
2022-09-19T09:40:59.030Z,1009.29
2022-09-19T09:42:00.189Z,1009.29
2022-09-19T09:42:59.020Z,1009.26
2022-09-19T09:43:59.160Z,1009.32
2022-09-19T09:44:59.908Z,1009.33
2022-09-19T09:45:59.204Z,1009.34
2022-09-19T09:46:58.952Z,1009.32
2022-09-19T09:48:00.402Z,1009.35
2022-09-19T09:48:59.082Z,1009.34
2022-09-19T09:49:59.882Z,1009.27
2022-09-19T09:50:58.874Z,1009.30
2022-09-19T09:51:58.989Z,1009.27
2022-09-19T09:52:58.870Z,1009.38
2022-09-19T09:53:58.850Z,1009.31
2022-09-19T09:54:58.832Z,1009.36
2022-09-19T09:55:58.818Z,1009.36
2022-09-19T09:56:58.851Z,1009.30
2022-09-19T09:57:58.786Z,1009.25
2022-09-19T09:58:58.766Z,1009.28
2022-09-19T09:59:59.994Z,1009.27
2022-09-19T10:00:58.909Z,1009.30
2022-09-19T10:01:58.839Z,1009.29
2022-09-19T10:02:58.767Z,1009.33
2022-09-19T10:03:58.779Z,1009.27
2022-09-19T10:04:59.538Z,1009.21
2022-09-19T10:05:58.761Z,1009.17
2022-09-19T10:06:58.893Z,1009.16
2022-09-19T10:07:58.648Z,1009.18
2022-09-19T10:08:58.634Z,1009.22
2022-09-19T10:09:58.627Z,1009.19
2022-09-19T10:10:58.805Z,1009.16
2022-09-19T10:13:01.510Z,1009.21
2022-09-19T10:13:58.709Z,1009.25
2022-09-19T10:14:58.738Z,1009.32
2022-09-19T10:15:58.577Z,1009.29
2022-09-19T10:16:59.390Z,1009.37
2022-09-19T10:17:58.578Z,1009.21
2022-09-19T10:18:59.971Z,1009.24
2022-09-19T10:19:58.698Z,1009.30
2022-09-19T10:20:58.754Z,1009.28
2022-09-19T10:21:58.605Z,1009.27
2022-09-19T10:22:58.743Z,1009.27
2022-09-19T10:23:58.789Z,1009.22
2022-09-19T10:24:58.543Z,1009.20
2022-09-19T10:25:59.551Z,1009.16
2022-09-19T10:26:58.424Z,1009.14
2022-09-19T10:27:58.450Z,1009.23
2022-09-19T10:28:58.402Z,1009.17
2022-09-19T10:29:58.394Z,1009.10
2022-09-19T10:30:58.443Z,1009.10
2022-09-19T10:31:58.432Z,1009.07
2022-09-19T10:32:59.295Z,1009.12
2022-09-19T10:33:58.333Z,1009.12
2022-09-19T10:34:58.303Z,1009.12
2022-09-19T10:35:58.277Z,1009.12
2022-09-19T10:36:58.633Z,1009.09
2022-09-19T10:37:58.245Z,1009.06
2022-09-19T10:38:58.839Z,1009.02
2022-09-19T10:39:59.274Z,1008.99
2022-09-19T10:40:58.246Z,1009.01
2022-09-19T10:41:58.265Z,1008.97
2022-09-19T10:42:58.858Z,1008.99
2022-09-19T10:43:58.188Z,1008.97
2022-09-19T10:44:58.243Z,1009.03
2022-09-19T10:45:58.210Z,1009.02
2022-09-19T10:46:58.124Z,1009.00
2022-09-19T10:47:58.285Z,1009.07
2022-09-19T10:48:58.118Z,1009.07
2022-09-19T10:49:59.287Z,1009.11
2022-09-19T10:50:59.082Z,1009.08
2022-09-19T10:51:58.296Z,1009.11
2022-09-19T10:52:58.082Z,1009.07
2022-09-19T10:54:00.800Z,1009.06
2022-09-19T10:54:58.111Z,1009.06
2022-09-19T10:55:58.037Z,1009.06
2022-09-19T10:56:58.051Z,1009.00
2022-09-19T10:57:58.116Z,1009.02
2022-09-19T10:58:58.004Z,1008.99
2022-09-19T10:59:57.951Z,1008.91
2022-09-19T11:00:57.993Z,1008.83
2022-09-19T11:01:58.055Z,1008.81
2022-09-19T11:02:58.160Z,1008.85
2022-09-19T11:03:58.043Z,1008.88
2022-09-19T11:04:58.031Z,1008.80
2022-09-19T11:05:58.031Z,1008.87
2022-09-19T11:06:57.896Z,1008.88
2022-09-19T11:07:57.875Z,1008.90
2022-09-19T11:08:57.838Z,1008.90
2022-09-19T11:09:58.044Z,1008.89
2022-09-19T11:10:57.987Z,1009.02
2022-09-19T11:11:57.810Z,1008.87
2022-09-19T11:12:57.812Z,1008.88
2022-09-19T11:13:57.924Z,1009.02
2022-09-19T11:14:58.139Z,1009.00
2022-09-19T11:15:57.765Z,1008.95
2022-09-19T11:17:01.387Z,1009.06
2022-09-19T11:17:57.728Z,1008.99
2022-09-19T11:18:57.758Z,1008.97
2022-09-19T11:19:57.698Z,1009.05
2022-09-19T11:20:57.734Z,1009.07
2022-09-19T11:21:57.989Z,1009.07
2022-09-19T11:22:58.933Z,1009.02
2022-09-19T11:23:57.925Z,1009.07
2022-09-19T11:24:58.735Z,1009.06
2022-09-19T11:25:58.355Z,1009.07
2022-09-19T11:26:58.574Z,1009.05
2022-09-19T11:27:57.681Z,1009.03
2022-09-19T11:28:57.781Z,1008.99
2022-09-19T11:29:58.543Z,1008.90
2022-09-19T11:30:57.749Z,1008.92
2022-09-19T11:32:59.257Z,1008.97
2022-09-19T11:35:09.760Z,1008.89
2022-09-19T11:35:58.626Z,1008.92
2022-09-19T11:36:57.617Z,1008.95
2022-09-19T11:37:57.556Z,1009.05
2022-09-19T11:39:58.506Z,1008.99
2022-09-19T11:40:58.205Z,1008.96
2022-09-19T11:41:57.581Z,1008.97
2022-09-19T11:42:57.425Z,1009.01
2022-09-19T11:43:57.406Z,1009.07
2022-09-19T11:44:58.613Z,1009.05
2022-09-19T11:45:58.373Z,1009.07
2022-09-19T11:46:58.426Z,1009.05
2022-09-19T11:47:58.079Z,1009.06
2022-09-19T11:48:57.338Z,1009.08
2022-09-19T11:49:57.478Z,1009.07
2022-09-19T11:50:57.341Z,1009.05
2022-09-19T11:51:58.458Z,1009.05
2022-09-19T11:52:59.108Z,1009.07
2022-09-19T11:53:57.417Z,1009.02
2022-09-19T11:54:58.011Z,1009.04
2022-09-19T11:55:57.265Z,1008.99
2022-09-19T11:56:57.871Z,1008.98
2022-09-19T11:57:59.942Z,1009.00
2022-09-19T11:58:57.270Z,1009.00
2022-09-19T11:59:57.169Z,1009.02
2022-09-19T12:00:57.186Z,1008.98
2022-09-19T12:01:57.494Z,1009.03
2022-09-19T12:02:57.237Z,1009.11
2022-09-19T12:04:02.946Z,1009.13
2022-09-19T12:04:58.130Z,1009.17
2022-09-19T12:05:57.496Z,1009.16
2022-09-19T12:06:57.102Z,1009.21
2022-09-19T12:07:58.081Z,1009.20
2022-09-19T12:08:58.171Z,1009.25